sensor_id;sensor_type;location;lat;lon;timestamp;pressure;altitude;pressure_sealevel;temperature;humidity
30081;BME280;16902;50.816;12.828;2023-03-04T00:00:43;98223.56;;;-1.34;100.00
30081;BME280;16902;50.816;12.828;2023-03-04T00:05:46;98215.34;;;-1.39;100.00
30081;BME280;16902;50.816;12.828;2023-03-04T00:10:48;98222.47;;;-1.44;100.00
30081;BME280;16902;50.816;12.828;2023-03-04T00:15:50;98223.94;;;-1.40;100.00
30081;BME280;16902;50.816;12.828;2023-03-04T00:20:52;98218.34;;;-1.46;100.00
30081;BME280;16902;50.816;12.828;2023-03-04T00:25:53;98205.69;;;-1.48;100.00
30081;BME280;16902;50.816;12.828;2023-03-04T00:30:55;98202.88;;;-1.58;100.00
30081;BME280;16902;50.816;12.828;2023-03-04T00:35:57;98206.44;;;-1.60;100.00
30081;BME280;16902;50.816;12.828;2023-03-04T00:40:58;98200.88;;;-1.52;100.00
30081;BME280;16902;50.816;12.828;2023-03-04T00:46:00;98193.50;;;-1.57;100.00
30081;BME280;16902;50.816;12.828;2023-03-04T00:51:04;98191.03;;;-1.59;100.00
30081;BME280;16902;50.816;12.828;2023-03-04T00:56:06;98182.84;;;-1.64;100.00
30081;BME280;16902;50.816;12.828;2023-03-04T01:01:07;98186.00;;;-1.60;100.00
30081;BME280;16902;50.816;12.828;2023-03-04T01:06:09;98173.25;;;-1.60;100.00
30081;BME280;16902;50.816;12.828;2023-03-04T01:11:12;98173.06;;;-1.57;100.00
30081;BME280;16902;50.816;12.828;2023-03-04T01:16:14;98175.63;;;-1.57;100.00
30081;BME280;16902;50.816;12.828;2023-03-04T01:21:15;98165.50;;;-1.59;100.00
30081;BME280;16902;50.816;12.828;2023-03-04T01:26:17;98164.59;;;-1.58;100.00
30081;BME280;16902;50.816;12.828;2023-03-04T01:31:20;98160.31;;;-1.57;100.00
30081;BME280;16902;50.816;12.828;2023-03-04T01:36:22;98147.97;;;-1.50;100.00
30081;BME280;16902;50.816;12.828;2023-03-04T01:41:25;98147.06;;;-1.49;100.00
30081;BME280;16902;50.816;12.828;2023-03-04T01:46:28;98146.22;;;-1.50;100.00
30081;BME280;16902;50.816;12.828;2023-03-04T01:51:31;98139.31;;;-1.48;100.00
30081;BME280;16902;50.816;12.828;2023-03-04T01:56:35;98125.63;;;-1.47;100.00
30081;BME280;16902;50.816;12.828;2023-03-04T02:01:38;98128.91;;;-1.45;100.00
30081;BME280;16902;50.816;12.828;2023-03-04T02:06:41;98124.81;;;-1.47;100.00
30081;BME280;16902;50.816;12.828;2023-03-04T02:11:44;98112.69;;;-1.44;100.00
30081;BME280;16902;50.816;12.828;2023-03-04T02:16:47;98114.78;;;-1.50;100.00
30081;BME280;16902;50.816;12.828;2023-03-04T02:21:49;98106.00;;;-1.46;100.00
30081;BME280;16902;50.816;12.828;2023-03-04T02:26:51;98111.78;;;-1.57;100.00
30081;BME280;16902;50.816;12.828;2023-03-04T02:31:53;98099.66;;;-1.53;100.00
30081;BME280;16902;50.816;12.828;2023-03-04T02:36:56;98094.97;;;-1.47;100.00
30081;BME280;16902;50.816;12.828;2023-03-04T02:42:02;98095.84;;;-1.34;100.00
30081;BME280;16902;50.816;12.828;2023-03-04T02:47:08;98101.50;;;-1.28;100.00
30081;BME280;16902;50.816;12.828;2023-03-04T02:52:19;98094.31;;;-1.36;100.00
30081;BME280;16902;50.816;12.828;2023-03-04T02:57:21;98092.09;;;-1.28;100.00
30081;BME280;16902;50.816;12.828;2023-03-04T03:02:27;98076.66;;;-1.26;100.00
30081;BME280;16902;50.816;12.828;2023-03-04T03:07:30;98074.25;;;-1.15;100.00
30081;BME280;16902;50.816;12.828;2023-03-04T03:12:32;98071.13;;;-1.06;100.00
30081;BME280;16902;50.816;12.828;2023-03-04T03:17:34;98072.44;;;-1.00;100.00
30081;BME280;16902;50.816;12.828;2023-03-04T03:22:36;98066.00;;;-1.06;100.00
30081;BME280;16902;50.816;12.828;2023-03-04T03:27:38;98063.53;;;-1.08;100.00
30081;BME280;16902;50.816;12.828;2023-03-04T03:32:40;98050.97;;;-1.11;100.00
30081;BME280;16902;50.816;12.828;2023-03-04T03:37:42;98050.66;;;-1.06;100.00
30081;BME280;16902;50.816;12.828;2023-03-04T03:42:43;98052.94;;;-1.01;100.00
30081;BME280;16902;50.816;12.828;2023-03-04T03:47:45;98048.19;;;-1.08;100.00
30081;BME280;16902;50.816;12.828;2023-03-04T03:52:47;98043.19;;;-1.09;100.00
30081;BME280;16902;50.816;12.828;2023-03-04T03:57:48;98042.50;;;-1.11;100.00
30081;BME280;16902;50.816;12.828;2023-03-04T04:02:52;98043.38;;;-1.12;100.00
30081;BME280;16902;50.816;12.828;2023-03-04T04:07:55;98051.03;;;-1.12;100.00
30081;BME280;16902;50.816;12.828;2023-03-04T04:12:56;98050.97;;;-1.11;100.00
30081;BME280;16902;50.816;12.828;2023-03-04T04:17:58;98055.47;;;-1.01;100.00
30081;BME280;16902;50.816;12.828;2023-03-04T04:23:00;98052.81;;;-1.00;100.00
30081;BME280;16902;50.816;12.828;2023-03-04T04:28:01;98058.63;;;-0.98;100.00
30081;BME280;16902;50.816;12.828;2023-03-04T04:33:03;98069.88;;;-1.00;100.00
30081;BME280;16902;50.816;12.828;2023-03-04T04:38:06;98066.00;;;-0.93;100.00
30081;BME280;16902;50.816;12.828;2023-03-04T04:43:08;98064.56;;;-0.97;100.00
30081;BME280;16902;50.816;12.828;2023-03-04T04:48:09;98057.81;;;-0.98;100.00
30081;BME280;16902;50.816;12.828;2023-03-04T04:53:12;98059.78;;;-0.89;100.00
30081;BME280;16902;50.816;12.828;2023-03-04T04:58:14;98062.13;;;-0.86;100.00
30081;BME280;16902;50.816;12.828;2023-03-04T05:03:16;98059.59;;;-0.86;100.00
30081;BME280;16902;50.816;12.828;2023-03-04T05:08:19;98061.31;;;-0.87;100.00
30081;BME280;16902;50.816;12.828;2023-03-04T05:13:21;98065.22;;;-0.81;100.00
30081;BME280;16902;50.816;12.828;2023-03-04T05:18:23;98069.41;;;-0.80;100.00
30081;BME280;16902;50.816;12.828;2023-03-04T05:23:28;98064.41;;;-0.82;100.00
30081;BME280;16902;50.816;12.828;2023-03-04T05:28:30;98062.94;;;-0.73;100.00
30081;BME280;16902;50.816;12.828;2023-03-04T05:33:32;98057.94;;;-0.74;100.00
30081;BME280;16902;50.816;12.828;2023-03-04T05:38:34;98065.19;;;-0.68;100.00
30081;BME280;16902;50.816;12.828;2023-03-04T05:43:36;98061.34;;;-0.61;100.00
30081;BME280;16902;50.816;12.828;2023-03-04T05:48:38;98058.16;;;-0.52;100.00
30081;BME280;16902;50.816;12.828;2023-03-04T05:53:40;98057.53;;;-0.43;100.00
30081;BME280;16902;50.816;12.828;2023-03-04T05:58:43;98040.16;;;-0.38;100.00
30081;BME280;16902;50.816;12.828;2023-03-04T06:03:45;98038.28;;;-0.36;100.00
30081;BME280;16902;50.816;12.828;2023-03-04T06:08:49;98039.03;;;-0.34;100.00
30081;BME280;16902;50.816;12.828;2023-03-04T06:13:50;98042.41;;;-0.33;100.00
30081;BME280;16902;50.816;12.828;2023-03-04T06:18:52;98040.09;;;-0.25;100.00
30081;BME280;16902;50.816;12.828;2023-03-04T06:23:54;98040.72;;;-0.21;100.00
30081;BME280;16902;50.816;12.828;2023-03-04T06:28:55;98038.06;;;-0.20;100.00
30081;BME280;16902;50.816;12.828;2023-03-04T06:33:57;98034.91;;;-0.23;100.00
30081;BME280;16902;50.816;12.828;2023-03-04T06:39:02;98039.59;;;-0.17;100.00
30081;BME280;16902;50.816;12.828;2023-03-04T06:44:04;98047.78;;;-0.12;100.00
30081;BME280;16902;50.816;12.828;2023-03-04T06:49:06;98049.53;;;-0.13;100.00
30081;BME280;16902;50.816;12.828;2023-03-04T06:54:08;98052.06;;;-0.13;100.00
30081;BME280;16902;50.816;12.828;2023-03-04T06:59:10;98054.41;;;-0.10;100.00
30081;BME280;16902;50.816;12.828;2023-03-04T07:04:12;98050.41;;;-0.01;100.00
30081;BME280;16902;50.816;12.828;2023-03-04T07:09:14;98047.97;;;-0.03;100.00
30081;BME280;16902;50.816;12.828;2023-03-04T07:14:16;98048.56;;;0.01;100.00
30081;BME280;16902;50.816;12.828;2023-03-04T07:19:17;98044.88;;;0.05;100.00
30081;BME280;16902;50.816;12.828;2023-03-04T07:24:19;98043.53;;;-0.01;100.00
30081;BME280;16902;50.816;12.828;2023-03-04T07:29:21;98045.78;;;0.04;100.00
30081;BME280;16902;50.816;12.828;2023-03-04T07:34:23;98050.50;;;0.10;100.00
30081;BME280;16902;50.816;12.828;2023-03-04T07:39:24;98048.03;;;0.09;100.00
30081;BME280;16902;50.816;12.828;2023-03-04T07:44:26;98046.28;;;0.09;100.00
30081;BME280;16902;50.816;12.828;2023-03-04T07:49:28;98044.31;;;0.13;100.00
30081;BME280;16902;50.816;12.828;2023-03-04T07:54:29;98047.00;;;0.11;100.00
30081;BME280;16902;50.816;12.828;2023-03-04T07:59:31;98038.06;;;0.17;100.00
30081;BME280;16902;50.816;12.828;2023-03-04T08:04:33;98034.25;;;0.22;100.00
30081;BME280;16902;50.816;12.828;2023-03-04T08:09:34;98042.06;;;0.21;100.00
30081;BME280;16902;50.816;12.828;2023-03-04T08:14:36;98035.47;;;0.30;100.00
30081;BME280;16902;50.816;12.828;2023-03-04T08:19:38;98038.09;;;0.41;100.00
30081;BME280;16902;50.816;12.828;2023-03-04T08:24:39;98045.56;;;0.44;100.00
30081;BME280;16902;50.816;12.828;2023-03-04T08:29:41;98029.34;;;0.67;100.00
30081;BME280;16902;50.816;12.828;2023-03-04T08:34:43;98034.41;;;0.80;100.00
30081;BME280;16902;50.816;12.828;2023-03-04T08:39:44;98025.69;;;0.83;100.00
30081;BME280;16902;50.816;12.828;2023-03-04T08:44:46;98024.88;;;0.93;100.00
30081;BME280;16902;50.816;12.828;2023-03-04T08:49:48;98025.25;;;1.00;100.00
30081;BME280;16902;50.816;12.828;2023-03-04T08:54:49;98026.31;;;1.09;100.00
30081;BME280;16902;50.816;12.828;2023-03-04T08:59:51;98019.78;;;1.05;100.00
30081;BME280;16902;50.816;12.828;2023-03-04T09:04:53;98013.75;;;1.17;100.00
30081;BME280;16902;50.816;12.828;2023-03-04T09:09:54;98018.19;;;1.26;100.00
30081;BME280;16902;50.816;12.828;2023-03-04T09:14:56;98012.84;;;1.51;100.00
30081;BME280;16902;50.816;12.828;2023-03-04T09:20:12;98011.66;;;1.33;100.00
30081;BME280;16902;50.816;12.828;2023-03-04T09:25:14;98007.47;;;1.77;100.00
30081;BME280;16902;50.816;12.828;2023-03-04T09:30:16;98012.69;;;1.64;100.00
30081;BME280;16902;50.816;12.828;2023-03-04T09:35:18;98017.50;;;1.80;100.00
30081;BME280;16902;50.816;12.828;2023-03-04T09:40:22;98021.41;;;2.06;100.00
30081;BME280;16902;50.816;12.828;2023-03-04T09:45:31;98012.44;;;2.01;100.00
30081;BME280;16902;50.816;12.828;2023-03-04T09:50:38;98005.44;;;1.92;100.00
30081;BME280;16902;50.816;12.828;2023-03-04T09:55:43;98009.75;;;2.14;100.00
30081;BME280;16902;50.816;12.828;2023-03-04T10:01:09;97990.00;;;2.46;100.00
30081;BME280;16902;50.816;12.828;2023-03-04T10:06:18;97988.50;;;2.76;100.00
30081;BME280;16902;50.816;12.828;2023-03-04T10:11:31;97973.06;;;2.97;100.00
30081;BME280;16902;50.816;12.828;2023-03-04T10:17:26;97987.91;;;2.72;100.00
30081;BME280;16902;50.816;12.828;2023-03-04T10:22:22;97974.88;;;2.64;100.00
30081;BME280;16902;50.816;12.828;2023-03-04T10:27:26;97985.72;;;2.68;100.00
30081;BME280;16902;50.816;12.828;2023-03-04T10:32:30;97974.25;;;2.93;100.00
30081;BME280;16902;50.816;12.828;2023-03-04T10:37:46;97969.25;;;3.22;100.00
30081;BME280;16902;50.816;12.828;2023-03-04T10:42:49;97963.59;;;3.28;100.00
30081;BME280;16902;50.816;12.828;2023-03-04T10:47:53;97956.34;;;3.12;100.00
30081;BME280;16902;50.816;12.828;2023-03-04T10:52:56;97961.13;;;3.57;100.00
30081;BME280;16902;50.816;12.828;2023-03-04T10:58:05;97954.09;;;3.28;100.00
30081;BME280;16902;50.816;12.828;2023-03-04T11:08:30;97949.97;;;3.06;100.00
30081;BME280;16902;50.816;12.828;2023-03-04T11:13:31;97939.25;;;3.01;100.00
30081;BME280;16902;50.816;12.828;2023-03-04T11:18:40;97934.63;;;2.95;100.00
30081;BME280;16902;50.816;12.828;2023-03-04T11:28:51;97932.59;;;3.29;100.00
30081;BME280;16902;50.816;12.828;2023-03-04T11:34:00;97922.81;;;3.23;100.00
30081;BME280;16902;50.816;12.828;2023-03-04T11:39:15;97925.00;;;3.28;100.00
30081;BME280;16902;50.816;12.828;2023-03-04T11:44:19;97922.06;;;3.42;100.00
30081;BME280;16902;50.816;12.828;2023-03-04T12:11:02;97906.63;;;3.42;100.00
30081;BME280;16902;50.816;12.828;2023-03-04T12:38:15;97873.91;;;3.64;100.00
30081;BME280;16902;50.816;12.828;2023-03-04T12:58:40;97861.97;;;3.72;100.00
30081;BME280;16902;50.816;12.828;2023-03-04T13:09:07;97858.75;;;3.90;100.00
30081;BME280;16902;50.816;12.828;2023-03-04T13:19:41;97841.41;;;3.92;100.00
30081;BME280;16902;50.816;12.828;2023-03-04T13:24:46;97837.06;;;4.11;100.00
30081;BME280;16902;50.816;12.828;2023-03-04T13:29:50;97839.75;;;4.20;100.00
30081;BME280;16902;50.816;12.828;2023-03-04T13:34:52;97832.44;;;4.05;100.00
30081;BME280;16902;50.816;12.828;2023-03-04T13:50:36;97824.56;;;4.73;100.00
30081;BME280;16902;50.816;12.828;2023-03-04T13:55:42;97827.31;;;4.62;100.00
30081;BME280;16902;50.816;12.828;2023-03-04T14:00:48;97815.75;;;4.76;100.00
30081;BME280;16902;50.816;12.828;2023-03-04T14:16:26;97800.78;;;4.42;100.00
30081;BME280;16902;50.816;12.828;2023-03-04T14:21:29;97803.03;;;4.64;100.00
30081;BME280;16902;50.816;12.828;2023-03-04T14:26:32;97789.56;;;4.71;100.00
30081;BME280;16902;50.816;12.828;2023-03-04T14:31:35;97785.50;;;4.68;100.00
30081;BME280;16902;50.816;12.828;2023-03-04T14:36:37;97785.25;;;4.61;100.00
30081;BME280;16902;50.816;12.828;2023-03-04T14:41:40;97793.81;;;4.52;100.00
30081;BME280;16902;50.816;12.828;2023-03-04T14:46:48;97789.81;;;4.40;100.00
30081;BME280;16902;50.816;12.828;2023-03-04T14:52:28;97773.53;;;4.30;100.00
30081;BME280;16902;50.816;12.828;2023-03-04T14:57:33;97776.53;;;4.25;100.00
30081;BME280;16902;50.816;12.828;2023-03-04T15:02:37;97770.88;;;4.22;100.00
30081;BME280;16902;50.816;12.828;2023-03-04T15:07:40;97772.94;;;3.99;100.00
30081;BME280;16902;50.816;12.828;2023-03-04T15:12:50;97768.75;;;3.78;100.00
30081;BME280;16902;50.816;12.828;2023-03-04T15:18:00;97768.47;;;3.43;100.00
30081;BME280;16902;50.816;12.828;2023-03-04T15:23:04;97761.00;;;3.20;100.00
30081;BME280;16902;50.816;12.828;2023-03-04T15:28:16;97762.34;;;3.05;100.00
30081;BME280;16902;50.816;12.828;2023-03-04T15:33:18;97771.75;;;2.85;100.00
30081;BME280;16902;50.816;12.828;2023-03-04T15:38:22;97770.38;;;2.71;100.00
30081;BME280;16902;50.816;12.828;2023-03-04T15:43:24;97780.09;;;2.68;100.00
30081;BME280;16902;50.816;12.828;2023-03-04T15:48:27;97777.34;;;2.60;100.00
30081;BME280;16902;50.816;12.828;2023-03-04T15:53:37;97771.53;;;2.57;100.00
30081;BME280;16902;50.816;12.828;2023-03-04T15:58:43;97783.13;;;2.52;100.00
30081;BME280;16902;50.816;12.828;2023-03-04T16:03:47;97787.28;;;2.43;100.00
30081;BME280;16902;50.816;12.828;2023-03-04T16:08:50;97788.47;;;2.39;100.00
30081;BME280;16902;50.816;12.828;2023-03-04T16:13:52;97788.03;;;2.34;100.00
30081;BME280;16902;50.816;12.828;2023-03-04T16:18:54;97786.81;;;2.28;100.00
30081;BME280;16902;50.816;12.828;2023-03-04T16:23:56;97785.19;;;2.27;100.00
30081;BME280;16902;50.816;12.828;2023-03-04T16:28:58;97782.16;;;2.22;100.00
30081;BME280;16902;50.816;12.828;2023-03-04T16:34:01;97783.53;;;2.26;100.00
30081;BME280;16902;50.816;12.828;2023-03-04T16:39:06;97782.16;;;2.22;100.00
30081;BME280;16902;50.816;12.828;2023-03-04T16:44:14;97779.34;;;2.25;100.00
30081;BME280;16902;50.816;12.828;2023-03-04T16:49:16;97781.09;;;2.25;100.00
30081;BME280;16902;50.816;12.828;2023-03-04T16:54:26;97773.53;;;2.23;100.00
30081;BME280;16902;50.816;12.828;2023-03-04T16:59:30;97776.34;;;2.20;100.00
30081;BME280;16902;50.816;12.828;2023-03-04T17:04:32;97775.53;;;2.20;100.00
30081;BME280;16902;50.816;12.828;2023-03-04T17:09:34;97776.84;;;2.14;100.00
30081;BME280;16902;50.816;12.828;2023-03-04T17:14:38;97777.84;;;2.23;100.00
30081;BME280;16902;50.816;12.828;2023-03-04T17:19:40;97781.28;;;2.33;100.00
30081;BME280;16902;50.816;12.828;2023-03-04T17:24:43;97779.47;;;2.24;100.00
30081;BME280;16902;50.816;12.828;2023-03-04T17:29:45;97782.84;;;2.24;100.00
30081;BME280;16902;50.816;12.828;2023-03-04T17:34:48;97785.66;;;2.21;100.00
30081;BME280;16902;50.816;12.828;2023-03-04T17:39:50;97791.88;;;2.19;100.00
30081;BME280;16902;50.816;12.828;2023-03-04T17:44:51;97794.50;;;2.28;100.00
30081;BME280;16902;50.816;12.828;2023-03-04T17:49:53;97784.38;;;2.37;100.00
30081;BME280;16902;50.816;12.828;2023-03-04T17:54:55;97789.53;;;2.37;100.00
30081;BME280;16902;50.816;12.828;2023-03-04T17:59:57;97791.75;;;2.20;100.00
30081;BME280;16902;50.816;12.828;2023-03-04T18:05:01;97791.94;;;2.28;100.00
30081;BME280;16902;50.816;12.828;2023-03-04T18:10:06;97792.56;;;2.21;100.00
30081;BME280;16902;50.816;12.828;2023-03-04T18:15:08;97787.41;;;2.21;100.00
30081;BME280;16902;50.816;12.828;2023-03-04T18:20:11;97784.28;;;2.17;100.00
30081;BME280;16902;50.816;12.828;2023-03-04T18:25:12;97792.81;;;2.18;100.00
30081;BME280;16902;50.816;12.828;2023-03-04T18:30:15;97789.69;;;2.14;100.00
30081;BME280;16902;50.816;12.828;2023-03-04T18:35:19;97795.25;;;2.19;100.00
30081;BME280;16902;50.816;12.828;2023-03-04T18:40:21;97791.44;;;2.14;100.00
30081;BME280;16902;50.816;12.828;2023-03-04T18:45:22;97781.19;;;2.14;100.00
30081;BME280;16902;50.816;12.828;2023-03-04T18:50:24;97779.66;;;2.11;100.00
30081;BME280;16902;50.816;12.828;2023-03-04T18:55:26;97779.53;;;2.13;100.00
30081;BME280;16902;50.816;12.828;2023-03-04T19:00:28;97781.56;;;2.09;100.00
30081;BME280;16902;50.816;12.828;2023-03-04T19:05:31;97788.31;;;2.10;100.00
30081;BME280;16902;50.816;12.828;2023-03-04T19:10:34;97790.06;;;2.10;100.00
30081;BME280;16902;50.816;12.828;2023-03-04T19:15:35;97794.25;;;2.11;100.00
30081;BME280;16902;50.816;12.828;2023-03-04T19:20:39;97791.81;;;2.09;100.00
30081;BME280;16902;50.816;12.828;2023-03-04T19:25:42;97800.88;;;1.92;100.00
30081;BME280;16902;50.816;12.828;2023-03-04T19:30:44;97804.53;;;1.90;100.00
30081;BME280;16902;50.816;12.828;2023-03-04T19:35:46;97801.69;;;1.93;100.00
30081;BME280;16902;50.816;12.828;2023-03-04T19:40:48;97807.78;;;1.92;100.00
30081;BME280;16902;50.816;12.828;2023-03-04T19:45:56;97807.09;;;1.90;100.00
30081;BME280;16902;50.816;12.828;2023-03-04T19:50:58;97805.91;;;1.94;100.00
30081;BME280;16902;50.816;12.828;2023-03-04T19:56:00;97804.53;;;1.90;100.00
30081;BME280;16902;50.816;12.828;2023-03-04T20:01:02;97811.34;;;1.79;100.00
30081;BME280;16902;50.816;12.828;2023-03-04T20:06:05;97808.28;;;1.86;100.00
30081;BME280;16902;50.816;12.828;2023-03-04T20:11:11;97822.00;;;1.96;100.00
30081;BME280;16902;50.816;12.828;2023-03-04T20:16:13;97818.09;;;1.80;100.00
30081;BME280;16902;50.816;12.828;2023-03-04T20:21:16;97817.72;;;1.85;100.00
30081;BME280;16902;50.816;12.828;2023-03-04T20:26:18;97811.34;;;1.79;100.00
30081;BME280;16902;50.816;12.828;2023-03-04T20:31:26;97823.28;;;1.69;100.00
30081;BME280;16902;50.816;12.828;2023-03-04T20:36:29;97822.13;;;1.62;100.00
30081;BME280;16902;50.816;12.828;2023-03-04T20:41:31;97817.50;;;1.56;100.00
30081;BME280;16902;50.816;12.828;2023-03-04T20:46:41;97819.69;;;1.61;100.00
30081;BME280;16902;50.816;12.828;2023-03-04T20:51:45;97818.44;;;1.55;100.00
30081;BME280;16902;50.816;12.828;2023-03-04T20:56:47;97817.94;;;1.61;100.00
30081;BME280;16902;50.816;12.828;2023-03-04T21:01:49;97816.88;;;1.64;100.00
30081;BME280;16902;50.816;12.828;2023-03-04T21:06:52;97804.66;;;1.56;100.00
30081;BME280;16902;50.816;12.828;2023-03-04T21:11:55;97804.81;;;1.43;100.00
30081;BME280;16902;50.816;12.828;2023-03-04T21:17:02;97809.13;;;1.43;100.00
30081;BME280;16902;50.816;12.828;2023-03-04T21:22:05;97810.53;;;1.47;100.00
30081;BME280;16902;50.816;12.828;2023-03-04T21:27:06;97813.91;;;1.47;100.00
30081;BME280;16902;50.816;12.828;2023-03-04T21:32:16;97818.34;;;1.34;100.00
30081;BME280;16902;50.816;12.828;2023-03-04T21:37:25;97812.69;;;1.31;100.00
30081;BME280;16902;50.816;12.828;2023-03-04T21:42:27;97801.56;;;1.30;100.00
30081;BME280;16902;50.816;12.828;2023-03-04T21:47:29;97802.53;;;1.29;100.00
30081;BME280;16902;50.816;12.828;2023-03-04T21:52:31;97795.41;;;1.33;100.00
30081;BME280;16902;50.816;12.828;2023-03-04T21:57:33;97793.06;;;1.41;100.00
30081;BME280;16902;50.816;12.828;2023-03-04T22:02:35;97792.25;;;1.29;100.00
30081;BME280;16902;50.816;12.828;2023-03-04T22:07:37;97793.28;;;1.38;100.00
30081;BME280;16902;50.816;12.828;2023-03-04T22:12:39;97791.31;;;1.41;100.00
30081;BME280;16902;50.816;12.828;2023-03-04T22:17:40;97791.09;;;1.33;100.00
30081;BME280;16902;50.816;12.828;2023-03-04T22:22:46;97785.38;;;1.29;100.00
30081;BME280;16902;50.816;12.828;2023-03-04T22:27:48;97787.63;;;1.23;100.00
30081;BME280;16902;50.816;12.828;2023-03-04T22:32:50;97789.59;;;1.19;100.00
30081;BME280;16902;50.816;12.828;2023-03-04T22:37:52;97789.59;;;1.19;100.00
30081;BME280;16902;50.816;12.828;2023-03-04T22:42:54;97787.88;;;1.09;100.00
30081;BME280;16902;50.816;12.828;2023-03-04T22:47:56;97782.53;;;1.00;100.00
30081;BME280;16902;50.816;12.828;2023-03-04T22:52:58;97783.94;;;0.93;100.00
30081;BME280;16902;50.816;12.828;2023-03-04T22:58:00;97789.75;;;0.95;100.00
30081;BME280;16902;50.816;12.828;2023-03-04T23:03:03;97782.78;;;0.97;100.00
30081;BME280;16902;50.816;12.828;2023-03-04T23:08:07;97790.56;;;0.96;100.00
30081;BME280;16902;50.816;12.828;2023-03-04T23:13:08;97787.31;;;0.94;100.00
30081;BME280;16902;50.816;12.828;2023-03-04T23:18:10;97778.81;;;0.82;100.00
30081;BME280;16902;50.816;12.828;2023-03-04T23:23:12;97773.69;;;0.82;100.00
30081;BME280;16902;50.816;12.828;2023-03-04T23:28:14;97771.03;;;0.84;100.00
30081;BME280;16902;50.816;12.828;2023-03-04T23:33:16;97759.16;;;0.83;100.00
30081;BME280;16902;50.816;12.828;2023-03-04T23:38:18;97765.44;;;0.90;100.00
30081;BME280;16902;50.816;12.828;2023-03-04T23:43:20;97759.03;;;0.84;100.00
30081;BME280;16902;50.816;12.828;2023-03-04T23:48:21;97753.78;;;0.86;100.00
30081;BME280;16902;50.816;12.828;2023-03-04T23:53:24;97755.19;;;0.90;100.00
30081;BME280;16902;50.816;12.828;2023-03-04T23:58:26;97755.41;;;0.87;100.00
